Time;durP1;ratioP1;P1;durP2;ratioP2;P2;SDS_P1;SDS_P2;PMS_P1;PMS_P2;Temp;Humidity;BMP_temperature;BMP_pressure;BME280_temperature;BME280_humidity;BME280_pressure;Samples;Min_cycle;Max_cycle;Signal;HPM_P1;HPM_P2
2022/12/28 00:02:21;;;;;;;3.53;2.70;;;4.30;99.90;;;;;;5266184;28;20277;-52
2022/12/28 00:04:51;;;;;;;3.37;2.87;;;4.40;99.90;;;;;;5270250;28;20522;-52
2022/12/28 00:07:22;;;;;;;8.77;3.57;;;4.40;99.90;;;;;;5266524;28;20205;-51
2022/12/28 00:09:52;;;;;;;11.47;4.00;;;4.40;99.90;;;;;;5250471;28;20196;-52
2022/12/28 00:12:23;;;;;;;3.03;2.83;;;4.40;99.90;;;;;;5250636;28;20212;-52
2022/12/28 00:14:54;;;;;;;6.43;3.07;;;4.40;99.90;;;;;;5258101;28;20187;-52
2022/12/28 00:17:25;;;;;;;3.90;2.53;;;4.50;99.90;;;;;;5253397;28;20700;-52
2022/12/28 00:19:56;;;;;;;5.60;2.53;;;4.60;99.90;;;;;;5254447;28;20184;-51
2022/12/28 00:22:26;;;;;;;7.13;2.27;;;4.60;99.90;;;;;;5266869;28;20195;-52
2022/12/28 00:24:57;;;;;;;9.13;3.00;;;4.60;99.90;;;;;;5270586;28;20427;-50
2022/12/28 00:27:28;;;;;;;12.73;2.87;;;4.70;99.90;;;;;;5251801;28;20500;-51
2022/12/28 00:29:58;;;;;;;5.57;3.07;;;4.70;99.90;;;;;;5250343;28;20610;-52
2022/12/28 00:32:29;;;;;;;3.93;2.37;;;4.60;99.90;;;;;;5253339;28;20699;-52
2022/12/28 00:35:00;;;;;;;4.73;3.10;;;4.70;99.90;;;;;;5257979;28;20185;-52
2022/12/28 00:37:32;;;;;;;7.77;3.53;;;4.60;99.90;;;;;;5262376;28;20592;-52
2022/12/28 00:40:02;;;;;;;5.90;2.63;;;4.60;99.90;;;;;;5258997;28;20527;-51
2022/12/28 00:42:33;;;;;;;5.90;2.27;;;4.70;99.90;;;;;;5264690;28;20534;-50
2022/12/28 00:45:04;;;;;;;5.63;2.87;;;4.70;99.90;;;;;;5263512;28;20502;-51
2022/12/28 00:47:35;;;;;;;6.53;2.63;;;4.60;99.90;;;;;;5259342;28;20231;-49
2022/12/28 00:50:06;;;;;;;4.30;2.53;;;4.60;99.90;;;;;;5254191;28;20499;-51
2022/12/28 00:52:37;;;;;;;3.03;2.60;;;4.70;99.90;;;;;;5260119;28;20217;-52
2022/12/28 00:55:08;;;;;;;7.10;3.93;;;4.70;99.90;;;;;;5255324;28;20503;-52
2022/12/28 00:57:39;;;;;;;11.90;4.17;;;4.80;99.90;;;;;;5263150;28;20238;-51
2022/12/28 01:00:11;;;;;;;7.70;3.53;;;4.90;99.90;;;;;;5273512;27;20451;-49
2022/12/28 01:02:42;;;;;;;3.10;2.13;;;4.80;99.90;;;;;;5277065;28;20442;-51
2022/12/28 01:05:12;;;;;;;11.40;4.00;;;4.80;99.90;;;;;;5261511;28;20709;-51
2022/12/28 01:07:43;;;;;;;3.53;2.90;;;4.80;99.90;;;;;;5257823;28;20214;-51
2022/12/28 01:10:14;;;;;;;5.50;2.90;;;4.80;99.90;;;;;;5262928;28;20191;-53
2022/12/28 01:12:45;;;;;;;6.00;3.00;;;4.70;99.90;;;;;;5256208;28;20471;-52
2022/12/28 01:15:15;;;;;;;4.70;3.10;;;4.80;99.90;;;;;;5258323;28;20950;-51
2022/12/28 01:17:46;;;;;;;9.63;3.00;;;4.90;99.90;;;;;;5261199;28;20235;-51
2022/12/28 01:20:17;;;;;;;8.27;2.67;;;4.80;99.90;;;;;;5253141;28;20192;-53
2022/12/28 01:22:47;;;;;;;9.07;3.20;;;4.80;99.90;;;;;;5255598;28;20194;-52
2022/12/28 01:25:18;;;;;;;9.03;3.17;;;4.90;99.90;;;;;;5249691;28;20582;-51
2022/12/28 01:27:49;;;;;;;7.53;2.60;;;5.00;99.90;;;;;;5249141;28;20205;-50
2022/12/28 01:30:19;;;;;;;6.30;3.17;;;5.00;99.90;;;;;;5264445;28;20189;-51
2022/12/28 01:32:50;;;;;;;8.17;2.80;;;4.90;99.90;;;;;;5252576;28;20239;-52
2022/12/28 01:35:21;;;;;;;7.40;3.83;;;4.80;99.90;;;;;;5256724;28;20188;-52
2022/12/28 01:37:51;;;;;;;7.17;3.23;;;4.90;99.90;;;;;;5254146;28;20205;-49
2022/12/28 01:40:22;;;;;;;3.83;3.00;;;4.90;99.90;;;;;;5265007;28;20216;-51
2022/12/28 01:42:52;;;;;;;5.80;2.90;;;4.90;99.90;;;;;;5256042;28;20182;-51
2022/12/28 01:45:23;;;;;;;4.87;3.20;;;4.90;99.90;;;;;;5255944;28;20654;-51
2022/12/28 01:47:55;;;;;;;3.73;2.40;;;4.80;99.90;;;;;;5264804;28;20235;-51
2022/12/28 01:50:28;;;;;;;4.80;2.30;;;4.90;99.90;;;;;;5257403;28;20193;-52
2022/12/28 01:53:03;;;;;;;11.13;3.00;;;4.90;99.90;;;;;;5261803;28;20458;-52
2022/12/28 01:55:34;;;;;;;8.23;2.50;;;4.90;99.90;;;;;;5259010;28;20436;-51
2022/12/28 01:58:11;;;;;;;5.27;3.60;;;4.80;99.90;;;;;;5255932;28;20491;-49
2022/12/28 02:00:42;;;;;;;3.50;3.20;;;4.90;99.90;;;;;;5249826;28;20431;-50
2022/12/28 02:03:21;;;;;;;6.27;2.90;;;4.90;99.90;;;;;;5253179;28;20503;-49
2022/12/28 02:05:56;;;;;;;5.27;3.47;;;4.90;99.90;;;;;;5258751;28;20232;-50
2022/12/28 02:08:50;;;;;;;9.13;2.90;;;4.80;99.90;;;;;;5260496;28;20472;-51
2022/12/28 02:11:21;;;;;;;5.77;2.77;;;4.60;99.90;;;;;;5263563;28;20448;-50
2022/12/28 02:13:53;;;;;;;6.23;2.80;;;4.60;99.90;;;;;;5263030;28;20468;-50
2022/12/28 02:16:24;;;;;;;8.00;2.40;;;4.50;99.90;;;;;;5260942;28;20479;-50
2022/12/28 02:18:55;;;;;;;6.03;2.80;;;4.40;99.90;;;;;;5249710;28;20988;-48
2022/12/28 02:21:32;;;;;;;2.47;2.33;;;4.40;99.90;;;;;;5262109;28;20268;-50
2022/12/28 02:24:35;;;;;;;2.87;2.67;;;4.30;99.90;;;;;;5269130;28;21153;-49
2022/12/28 02:27:19;;;;;;;12.93;2.87;;;4.20;99.90;;;;;;5229199;28;20442;-50
2022/12/28 02:30:04;;;;;;;7.80;2.70;;;4.30;99.90;;;;;;5255305;28;20834;-49
2022/12/28 02:32:50;;;;;;;3.00;2.70;;;4.30;99.90;;;;;;5254731;28;20474;-50
2022/12/28 02:35:37;;;;;;;5.20;3.20;;;4.30;99.90;;;;;;5255669;28;20487;-50
2022/12/28 02:38:13;;;;;;;6.10;3.90;;;4.30;99.90;;;;;;5258998;28;20455;-49
2022/12/28 02:41:12;;;;;;;12.23;4.40;;;4.20;99.90;;;;;;5256719;28;20495;-50
2022/12/28 02:43:44;;;;;;;8.83;3.53;;;4.20;99.90;;;;;;5266296;28;20461;-50
2022/12/28 02:52:41;;;;;;;12.10;5.40;;;4.40;99.90;;;;;;5261400;28;20465;-50
2022/12/28 02:58:34;;;;;;;14.60;6.73;;;4.30;99.90;;;;;;5271849;28;20461;-50
2022/12/28 03:01:23;;;;;;;16.07;5.57;;;4.20;99.90;;;;;;5260125;28;20424;-49
2022/12/28 03:04:02;;;;;;;9.17;4.40;;;4.20;99.90;;;;;;5251418;28;20435;-49
2022/12/28 03:09:45;;;;;;;12.83;7.13;;;4.30;99.90;;;;;;5267767;28;20433;-50
2022/12/28 03:12:43;;;;;;;4.73;4.30;;;4.20;99.90;;;;;;5255989;28;20530;-51
2022/12/28 03:15:28;;;;;;;7.87;4.70;;;4.20;99.90;;;;;;5259839;28;20810;-50
2022/12/28 03:32:36;;;;;;;8.87;3.73;;;4.30;99.90;;;;;;5258171;28;20525;-49
2022/12/28 03:35:07;;;;;;;7.50;3.27;;;4.30;99.90;;;;;;5262597;28;20875;-50
2022/12/28 03:37:51;;;;;;;4.00;2.87;;;4.40;99.90;;;;;;5257912;28;20244;-50
2022/12/28 03:40:50;;;;;;;3.73;2.70;;;4.30;99.90;;;;;;5256819;28;20793;-50
2022/12/28 03:43:41;;;;;;;2.50;2.30;;;4.40;99.90;;;;;;5275779;28;20485;-50
2022/12/28 03:46:23;;;;;;;3.47;2.87;;;4.20;99.90;;;;;;5260541;28;20515;-51
2022/12/28 03:48:54;;;;;;;3.20;2.57;;;4.20;99.90;;;;;;5265810;28;20511;-50
2022/12/28 03:51:28;;;;;;;3.60;2.10;;;4.10;99.90;;;;;;5267772;28;20444;-50
2022/12/28 03:53:59;;;;;;;5.83;2.20;;;4.10;99.90;;;;;;5267632;28;20974;-49
2022/12/28 03:56:29;;;;;;;3.03;2.30;;;4.20;99.90;;;;;;5258504;28;20480;-50
2022/12/28 03:59:00;;;;;;;4.83;2.90;;;4.20;99.90;;;;;;5263628;28;20219;-50
2022/12/28 04:01:31;;;;;;;4.20;2.90;;;4.10;99.90;;;;;;5256104;28;20186;-50
2022/12/28 04:04:01;;;;;;;2.53;2.17;;;4.20;99.90;;;;;;5263839;28;20504;-48
2022/12/28 04:06:32;;;;;;;7.17;2.20;;;4.10;99.90;;;;;;5265529;28;20261;-49
2022/12/28 04:09:03;;;;;;;9.60;2.00;;;4.10;99.90;;;;;;5256484;28;20205;-49
2022/12/28 04:11:34;;;;;;;2.27;2.07;;;3.90;99.90;;;;;;5264928;28;20523;-50
2022/12/28 04:14:05;;;;;;;4.97;2.43;;;3.90;99.90;;;;;;5257752;28;20466;-50
2022/12/28 04:16:35;;;;;;;1.70;1.70;;;3.80;99.90;;;;;;5265142;28;20189;-50
2022/12/28 04:19:06;;;;;;;1.80;1.70;;;3.70;99.90;;;;;;5265482;28;20215;-51
2022/12/28 04:21:36;;;;;;;3.27;2.30;;;3.80;99.90;;;;;;5272422;28;20545;-49
2022/12/28 04:24:07;;;;;;;12.70;2.70;;;3.70;99.90;;;;;;5262101;28;20193;-50
2022/12/28 04:26:38;;;;;;;5.30;2.50;;;3.80;99.90;;;;;;5245023;28;20218;-51
2022/12/28 04:29:08;;;;;;;3.97;2.87;;;3.70;99.90;;;;;;5246810;28;20294;-49
2022/12/28 04:31:39;;;;;;;5.23;2.80;;;3.80;99.90;;;;;;5260939;28;20194;-51
2022/12/28 04:34:10;;;;;;;3.70;2.40;;;3.70;99.90;;;;;;5260739;28;20246;-50
2022/12/28 04:36:41;;;;;;;5.87;3.20;;;3.80;99.90;;;;;;5263264;28;20191;-50
2022/12/28 04:39:12;;;;;;;2.20;1.70;;;3.80;99.90;;;;;;5268982;28;20199;-49
2022/12/28 04:41:43;;;;;;;5.17;2.40;;;3.90;99.90;;;;;;5265884;28;20437;-50
2022/12/28 04:44:13;;;;;;;3.07;2.33;;;3.80;99.90;;;;;;5266968;28;20196;-50
2022/12/28 04:46:44;;;;;;;2.40;2.17;;;3.80;99.90;;;;;;5258293;28;20195;-49
2022/12/28 04:49:15;;;;;;;10.03;2.20;;;3.80;99.90;;;;;;5254380;28;20211;-50
2022/12/28 04:51:45;;;;;;;5.07;2.50;;;4.00;99.90;;;;;;5262630;28;20241;-49
2022/12/28 04:54:16;;;;;;;6.10;2.20;;;4.00;99.90;;;;;;5261974;28;20231;-51
2022/12/28 04:56:47;;;;;;;6.23;2.10;;;3.80;99.90;;;;;;5258751;28;20180;-51
2022/12/28 04:59:17;;;;;;;6.40;2.27;;;3.80;99.90;;;;;;5259993;28;20211;-49
2022/12/28 05:01:48;;;;;;;6.73;2.47;;;3.80;99.90;;;;;;5262519;28;20183;-50
2022/12/28 05:04:18;;;;;;;3.40;1.50;;;3.90;99.90;;;;;;5259511;28;20190;-49
2022/12/28 05:06:49;;;;;;;23.60;3.10;;;3.80;99.90;;;;;;5266318;28;20690;-50
2022/12/28 05:09:20;;;;;;;3.40;1.70;;;3.90;99.90;;;;;;5252391;28;20211;-49
2022/12/28 05:11:50;;;;;;;3.87;2.00;;;3.80;99.90;;;;;;5259267;28;20238;-50
2022/12/28 05:14:21;;;;;;;7.67;2.20;;;3.70;99.90;;;;;;5266881;28;20210;-50
2022/12/28 05:16:51;;;;;;;4.40;1.90;;;3.80;99.90;;;;;;5259037;28;21829;-50
2022/12/28 05:19:22;;;;;;;6.03;2.17;;;3.80;99.90;;;;;;5260075;28;20616;-49
2022/12/28 05:21:53;;;;;;;2.13;1.97;;;3.70;99.90;;;;;;5256314;28;20181;-51
2022/12/28 05:24:23;;;;;;;3.03;1.90;;;3.70;99.90;;;;;;5259186;28;20188;-50
2022/12/28 05:26:54;;;;;;;1.57;1.43;;;3.70;99.90;;;;;;5264360;28;20194;-51
2022/12/28 05:29:24;;;;;;;4.43;1.87;;;3.80;99.90;;;;;;5258439;28;20193;-50
2022/12/28 05:31:55;;;;;;;1.90;1.80;;;3.80;99.90;;;;;;5258481;28;20296;-50
2022/12/28 05:34:26;;;;;;;2.87;2.10;;;3.70;99.90;;;;;;5264188;28;20221;-50
2022/12/28 05:36:56;;;;;;;2.70;1.40;;;3.80;99.90;;;;;;5248754;28;20192;-50
2022/12/28 05:39:27;;;;;;;1.90;1.73;;;4.00;99.90;;;;;;5260509;28;20174;-49
2022/12/28 05:41:59;;;;;;;3.93;1.40;;;4.00;99.90;;;;;;5265369;28;20559;-50
2022/12/28 05:44:30;;;;;;;1.80;1.47;;;4.00;99.90;;;;;;5262213;28;20210;-49
2022/12/28 05:47:01;;;;;;;9.77;2.10;;;3.80;99.90;;;;;;5260551;28;20436;-50
2022/12/28 05:49:32;;;;;;;2.97;2.00;;;3.80;99.90;;;;;;5261982;28;20441;-49
2022/12/28 05:52:02;;;;;;;6.90;1.37;;;3.90;99.90;;;;;;5246909;28;20209;-50
2022/12/28 05:54:33;;;;;;;3.43;2.00;;;3.80;99.90;;;;;;5262850;28;20182;-50
2022/12/28 05:57:04;;;;;;;3.33;1.40;;;3.80;99.90;;;;;;5254114;28;20195;-49
2022/12/28 05:59:34;;;;;;;8.03;2.00;;;3.90;99.90;;;;;;5261065;28;20223;-49
2022/12/28 06:02:05;;;;;;;2.73;1.70;;;3.90;99.90;;;;;;5250633;28;20637;-51
2022/12/28 06:04:35;;;;;;;9.40;1.50;;;4.10;99.90;;;;;;5256692;28;20642;-51
2022/12/28 06:07:06;;;;;;;1.30;1.20;;;4.00;99.90;;;;;;5261252;28;20184;-50
2022/12/28 06:09:37;;;;;;;2.37;0.90;;;4.00;99.90;;;;;;5258081;28;20182;-51
2022/12/28 06:12:07;;;;;;;2.27;1.70;;;4.00;99.90;;;;;;5257901;28;20216;-51
2022/12/28 06:14:38;;;;;;;4.07;1.40;;;4.00;99.90;;;;;;5265241;28;20664;-50
2022/12/28 06:17:09;;;;;;;2.97;1.53;;;4.00;99.90;;;;;;5262575;28;20179;-51
2022/12/28 06:19:39;;;;;;;12.07;1.80;;;4.00;99.90;;;;;;5264122;28;20181;-51
2022/12/28 06:22:10;;;;;;;4.07;1.23;;;4.00;99.90;;;;;;5273130;28;20650;-51
2022/12/28 06:24:40;;;;;;;4.53;1.90;;;4.00;99.90;;;;;;5258589;28;20187;-50
2022/12/28 06:27:11;;;;;;;3.13;1.43;;;4.10;99.90;;;;;;5266357;28;20235;-49
2022/12/28 06:29:42;;;;;;;7.10;1.90;;;4.10;99.90;;;;;;5263647;28;20174;-52
2022/12/28 06:32:12;;;;;;;2.43;1.57;;;4.10;99.90;;;;;;5263294;28;20216;-51
2022/12/28 06:34:43;;;;;;;6.50;2.07;;;4.20;99.90;;;;;;5266512;28;20232;-51
2022/12/28 06:37:13;;;;;;;5.10;1.90;;;4.20;99.90;;;;;;5261059;28;20262;-50
2022/12/28 06:39:44;;;;;;;4.20;1.60;;;4.30;99.90;;;;;;5264049;28;20272;-51
2022/12/28 06:42:15;;;;;;;2.73;1.97;;;4.30;99.90;;;;;;5259919;28;20189;-51
2022/12/28 06:44:45;;;;;;;7.47;1.80;;;4.30;99.90;;;;;;5242387;28;20193;-51
2022/12/28 06:47:16;;;;;;;4.70;1.70;;;4.40;99.90;;;;;;5263542;28;20278;-51
2022/12/28 06:49:47;;;;;;;9.00;3.20;;;4.50;99.90;;;;;;5268075;28;20221;-52
2022/12/28 06:52:17;;;;;;;8.73;4.63;;;4.40;99.90;;;;;;5268518;28;20213;-51
2022/12/28 06:54:48;;;;;;;7.23;4.53;;;4.40;99.90;;;;;;5271880;28;20175;-47
2022/12/28 06:57:19;;;;;;;5.87;3.73;;;4.30;99.90;;;;;;5268350;28;20250;-50
2022/12/28 06:59:49;;;;;;;10.50;4.60;;;4.30;99.90;;;;;;5268230;28;20188;-49
2022/12/28 07:02:20;;;;;;;8.53;5.40;;;4.20;99.90;;;;;;5267612;28;20328;-49
2022/12/28 07:04:51;;;;;;;10.40;5.50;;;4.20;99.90;;;;;;5272117;28;20232;-48
2022/12/28 07:07:21;;;;;;;16.30;8.17;;;4.20;99.90;;;;;;5264873;28;20608;-50
2022/12/28 07:09:52;;;;;;;7.00;4.07;;;4.40;99.90;;;;;;5269522;28;20714;-48
2022/12/28 07:12:22;;;;;;;7.87;2.73;;;4.20;99.90;;;;;;5267290;28;20229;-48
2022/12/28 07:14:53;;;;;;;8.57;3.87;;;4.10;99.90;;;;;;5268246;28;20183;-48
2022/12/28 07:17:24;;;;;;;2.57;1.83;;;4.00;99.90;;;;;;5269143;28;20619;-48
2022/12/28 07:19:54;;;;;;;9.13;2.80;;;4.10;99.90;;;;;;5271934;28;20669;-51
2022/12/28 07:22:25;;;;;;;5.13;2.60;;;4.10;99.90;;;;;;5279445;27;20282;-49
2022/12/28 07:24:56;;;;;;;13.33;2.53;;;4.10;99.90;;;;;;5261306;28;20186;-49
2022/12/28 07:27:26;;;;;;;3.40;2.03;;;4.10;99.90;;;;;;5269313;28;20538;-50
2022/12/28 07:29:57;;;;;;;7.13;2.27;;;4.20;99.90;;;;;;5273858;28;20202;-47
2022/12/28 07:32:27;;;;;;;2.40;1.77;;;4.40;99.90;;;;;;5264920;28;20209;-48
2022/12/28 07:34:58;;;;;;;2.23;2.13;;;4.30;99.90;;;;;;5271662;28;20184;-52
2022/12/28 07:37:29;;;;;;;5.70;2.43;;;4.30;99.90;;;;;;5273856;28;20200;-49
2022/12/28 07:39:59;;;;;;;9.17;2.10;;;4.40;99.90;;;;;;5263125;28;20543;-49
2022/12/28 07:42:30;;;;;;;6.47;2.47;;;4.40;99.90;;;;;;5271362;28;20271;-47
2022/12/28 07:45:01;;;;;;;4.07;2.33;;;4.50;99.90;;;;;;5265255;28;20584;-54
2022/12/28 07:47:32;;;;;;;4.23;2.57;;;4.50;99.90;;;;;;5269314;28;20231;-50
2022/12/28 07:50:03;;;;;;;4.43;2.07;;;4.50;99.90;;;;;;5269012;28;20184;-50
2022/12/28 07:52:36;;;;;;;7.50;2.80;;;4.60;99.90;;;;;;5270285;28;20544;-48
2022/12/28 07:55:07;;;;;;;13.57;2.70;;;4.50;99.90;;;;;;5262581;28;20458;-49
2022/12/28 07:57:37;;;;;;;7.80;2.47;;;4.60;99.90;;;;;;5266659;28;20965;-52
2022/12/28 08:00:09;;;;;;;5.03;2.60;;;4.60;99.90;;;;;;5266780;28;20429;-51
2022/12/28 08:02:39;;;;;;;5.80;2.50;;;4.60;99.90;;;;;;5260862;28;20236;-53
2022/12/28 08:05:10;;;;;;;9.00;2.00;;;4.70;99.90;;;;;;5268270;28;20489;-52
2022/12/28 08:07:41;;;;;;;2.93;1.90;;;4.70;99.90;;;;;;5263059;28;20300;-52
2022/12/28 08:10:11;;;;;;;3.33;2.60;;;4.70;99.90;;;;;;5254441;28;20199;-52
2022/12/28 08:12:42;;;;;;;2.97;2.37;;;4.80;99.90;;;;;;5259611;28;20215;-52
2022/12/28 08:15:13;;;;;;;2.10;1.97;;;4.70;99.90;;;;;;5254607;28;20185;-51
2022/12/28 08:17:43;;;;;;;2.07;1.90;;;4.80;99.90;;;;;;5267683;28;20200;-52
2022/12/28 08:20:14;;;;;;;4.37;2.07;;;4.80;99.90;;;;;;5262258;28;20180;-52
2022/12/28 08:22:45;;;;;;;2.63;2.43;;;4.90;99.90;;;;;;5263380;28;20594;-51
2022/12/28 08:25:15;;;;;;;2.00;1.93;;;4.80;99.90;;;;;;5267613;28;20647;-51
2022/12/28 08:27:46;;;;;;;2.50;2.27;;;4.80;99.90;;;;;;5261265;28;20202;-52
2022/12/28 08:30:16;;;;;;;2.20;1.93;;;5.10;99.90;;;;;;5266997;28;20223;-53
2022/12/28 08:32:47;;;;;;;6.73;2.03;;;5.10;99.90;;;;;;5267383;28;20240;-50
2022/12/28 08:35:18;;;;;;;2.87;2.60;;;5.20;99.90;;;;;;5268500;28;20180;-51
2022/12/28 08:37:48;;;;;;;5.37;2.60;;;5.10;99.90;;;;;;5269968;28;20228;-51
2022/12/28 08:40:19;;;;;;;1.90;1.90;;;5.30;99.90;;;;;;5262281;28;20195;-52
2022/12/28 08:42:50;;;;;;;5.40;2.20;;;5.30;99.90;;;;;;5262077;28;20192;-52
2022/12/28 08:45:20;;;;;;;10.03;3.10;;;5.30;99.90;;;;;;5258610;28;20649;-50
2022/12/28 08:47:52;;;;;;;7.73;2.90;;;5.40;99.90;;;;;;5257320;28;20634;-52
2022/12/28 08:50:22;;;;;;;8.97;3.40;;;5.40;99.90;;;;;;5257919;28;22026;-50
2022/12/28 08:52:53;;;;;;;6.40;2.60;;;5.50;99.90;;;;;;5262231;28;20458;-52
2022/12/28 08:55:24;;;;;;;5.07;3.00;;;5.40;99.90;;;;;;5272061;28;20609;-52
2022/12/28 08:57:54;;;;;;;7.63;3.23;;;5.50;99.90;;;;;;5263799;28;20295;-49
2022/12/28 09:00:25;;;;;;;3.50;2.53;;;5.50;99.90;;;;;;5262479;28;20272;-52
2022/12/28 09:02:58;;;;;;;6.60;3.20;;;5.60;99.90;;;;;;5262805;28;20188;-52
2022/12/28 09:05:28;;;;;;;2.23;2.10;;;5.60;99.90;;;;;;5255403;28;20239;-51
2022/12/28 09:07:59;;;;;;;3.70;3.50;;;5.70;99.90;;;;;;5268047;28;20815;-53
2022/12/28 09:10:30;;;;;;;6.57;2.07;;;5.70;99.90;;;;;;5257575;28;20871;-54
2022/12/28 09:13:01;;;;;;;5.00;1.67;;;5.70;99.90;;;;;;5266613;28;20197;-50
2022/12/28 09:15:31;;;;;;;4.03;2.07;;;5.70;99.90;;;;;;5267405;28;20193;-50
2022/12/28 09:18:02;;;;;;;2.23;2.00;;;5.80;99.90;;;;;;5259352;28;20192;-51
2022/12/28 09:20:34;;;;;;;4.57;2.20;;;5.90;99.90;;;;;;5268377;28;20291;-50
2022/12/28 09:23:04;;;;;;;1.80;1.60;;;5.90;99.90;;;;;;5264278;28;20182;-52
2022/12/28 09:25:35;;;;;;;8.67;3.47;;;5.80;99.90;;;;;;5283318;27;20448;-52
2022/12/28 09:28:05;;;;;;;17.50;4.43;;;5.80;99.90;;;;;;5265191;28;20213;-51
2022/12/28 09:30:36;;;;;;;4.43;3.10;;;5.90;99.90;;;;;;5260131;28;20182;-51
2022/12/28 09:35:58;;;;;;;10.37;4.67;;;6.00;99.90;;;;;;5266422;28;20204;-51
2022/12/28 09:38:30;;;;;;;14.73;7.70;;;6.10;99.90;;;;;;5265453;28;20455;-50
2022/12/28 09:41:14;;;;;;;13.50;6.37;;;6.20;99.90;;;;;;5273677;28;20437;-49
2022/12/28 09:43:45;;;;;;;8.23;5.40;;;6.10;99.90;;;;;;5267408;28;20434;-50
2022/12/28 09:46:19;;;;;;;9.50;5.17;;;6.10;99.90;;;;;;5258221;28;20427;-47
2022/12/28 09:48:55;;;;;;;7.20;3.67;;;6.20;99.90;;;;;;5268023;28;20462;-49
2022/12/28 09:51:37;;;;;;;6.50;2.67;;;6.20;99.90;;;;;;5261670;28;20438;-50
2022/12/28 09:54:07;;;;;;;6.63;3.43;;;6.30;99.90;;;;;;5268781;28;20474;-49
2022/12/28 09:56:41;;;;;;;7.13;3.23;;;6.40;99.90;;;;;;5265817;28;21037;-49
2022/12/28 09:59:17;;;;;;;13.63;4.07;;;6.40;99.90;;;;;;5286169;27;20221;-51
2022/12/28 10:01:56;;;;;;;5.37;2.73;;;6.60;99.90;;;;;;5277316;28;20777;-49
2022/12/28 10:04:26;;;;;;;2.47;2.20;;;6.50;99.90;;;;;;5265182;28;20444;-49
2022/12/28 10:07:00;;;;;;;3.07;2.47;;;6.60;99.90;;;;;;5264209;28;20436;-49
2022/12/28 10:09:32;;;;;;;4.73;2.07;;;6.70;99.90;;;;;;5263162;28;20184;-51
2022/12/28 10:12:15;;;;;;;2.30;2.20;;;6.80;99.90;;;;;;5265073;28;20525;-50
2022/12/28 10:14:47;;;;;;;3.40;1.90;;;6.80;99.90;;;;;;5268171;28;20420;-49
2022/12/28 10:17:22;;;;;;;4.43;2.70;;;6.80;99.90;;;;;;5269792;28;20481;-49
2022/12/28 10:19:56;;;;;;;2.50;2.40;;;6.80;99.90;;;;;;5262857;28;20963;-51
2022/12/28 10:22:37;;;;;;;3.70;1.87;;;6.90;99.90;;;;;;5265059;28;20788;-48
2022/12/28 10:25:20;;;;;;;2.27;2.03;;;6.90;99.90;;;;;;5268469;28;20427;-50
2022/12/28 10:27:52;;;;;;;2.53;2.30;;;6.90;99.90;;;;;;5269691;28;20460;-49
2022/12/28 10:30:25;;;;;;;4.83;1.97;;;6.90;99.90;;;;;;5267440;28;20442;-52
2022/12/28 10:32:58;;;;;;;3.50;2.20;;;7.00;99.90;;;;;;5275533;28;20855;-49
2022/12/28 10:35:49;;;;;;;3.20;2.43;;;7.10;99.90;;;;;;5276086;28;20428;-49
2022/12/28 10:38:31;;;;;;;2.63;2.43;;;7.20;99.90;;;;;;5266050;28;20463;-50
2022/12/28 10:41:11;;;;;;;3.17;2.97;;;7.20;99.90;;;;;;5249933;28;20459;-49
2022/12/28 10:43:45;;;;;;;5.63;4.37;;;7.20;99.90;;;;;;5261418;28;20459;-50
2022/12/28 10:46:22;;;;;;;8.67;6.00;;;7.10;99.90;;;;;;5267292;28;20442;-51
2022/12/28 10:48:58;;;;;;;26.20;10.60;;;7.00;99.90;;;;;;5262424;28;20467;-49
2022/12/28 10:51:29;;;;;;;9.20;4.97;;;7.10;99.90;;;;;;5256713;28;20435;-48
2022/12/28 10:54:00;;;;;;;11.53;7.03;;;7.20;99.90;;;;;;5268310;28;20466;-49
2022/12/28 10:56:42;;;;;;;8.33;4.30;;;7.20;99.90;;;;;;5266957;28;20551;-50
2022/12/28 10:59:24;;;;;;;10.23;5.37;;;7.20;99.90;;;;;;5278729;28;20208;-48
2022/12/28 11:02:28;;;;;;;5.10;4.10;;;7.20;99.90;;;;;;5263578;28;20424;-49
2022/12/28 11:05:01;;;;;;;6.10;5.17;;;7.20;99.90;;;;;;5267514;28;20435;-50
2022/12/28 11:07:37;;;;;;;6.80;4.50;;;7.40;99.90;;;;;;5259934;28;20918;-50
2022/12/28 11:10:21;;;;;;;7.73;5.17;;;7.60;99.90;;;;;;5254706;28;20467;-48
2022/12/28 11:12:54;;;;;;;5.73;4.40;;;7.60;99.90;;;;;;5259032;28;20458;-49
2022/12/28 11:15:29;;;;;;;3.40;3.10;;;7.70;99.90;;;;;;5255159;28;20431;-49
2022/12/28 11:18:16;;;;;;;7.90;5.03;;;7.60;99.90;;;;;;5259312;28;20454;-49
2022/12/28 11:20:50;;;;;;;4.53;3.23;;;7.60;99.90;;;;;;5262252;28;20439;-50
2022/12/28 11:23:23;;;;;;;3.40;2.27;;;7.60;99.90;;;;;;5254609;28;20463;-48
2022/12/28 11:25:54;;;;;;;2.17;2.07;;;7.70;99.90;;;;;;5259791;28;20472;-50
2022/12/28 11:28:25;;;;;;;7.23;2.83;;;7.70;99.90;;;;;;5260523;28;21051;-51
2022/12/28 11:30:56;;;;;;;5.40;2.57;;;7.80;99.90;;;;;;5259131;28;20189;-50
2022/12/28 11:33:43;;;;;;;4.23;2.00;;;7.70;99.90;;;;;;5268208;28;20292;-49
2022/12/28 11:36:16;;;;;;;2.70;2.50;;;7.50;99.90;;;;;;5262994;28;20423;-49
2022/12/28 11:38:50;;;;;;;2.27;2.20;;;7.60;99.90;;;;;;5275428;28;20539;-52
2022/12/28 11:41:24;;;;;;;2.37;2.10;;;7.60;99.90;;;;;;5262539;28;20664;-49
2022/12/28 11:44:00;;;;;;;3.00;2.70;;;7.70;99.90;;;;;;5270589;28;20434;-48
2022/12/28 11:46:33;;;;;;;2.70;2.50;;;7.70;99.90;;;;;;5262182;28;20435;-50
2022/12/28 11:49:28;;;;;;;3.77;2.30;;;7.70;99.90;;;;;;5279519;27;20471;-49
2022/12/28 11:52:22;;;;;;;6.03;2.73;;;7.70;99.90;;;;;;5260025;28;20435;-50
2022/12/28 11:54:54;;;;;;;3.30;2.13;;;7.60;99.90;;;;;;5247840;28;20443;-50
2022/12/28 11:57:37;;;;;;;2.40;2.30;;;7.70;99.90;;;;;;5259282;28;20980;-50
2022/12/28 12:00:17;;;;;;;2.70;2.17;;;7.80;99.90;;;;;;5265798;28;20437;-49
2022/12/28 12:02:49;;;;;;;2.00;1.90;;;7.90;99.90;;;;;;5285361;27;20958;-48
2022/12/28 12:05:46;;;;;;;3.13;1.97;;;8.00;99.90;;;;;;5274345;28;20446;-53
2022/12/28 12:08:17;;;;;;;4.10;2.10;;;8.10;99.90;;;;;;5266340;28;20456;-50
2022/12/28 12:11:08;;;;;;;2.63;2.43;;;8.00;99.90;;;;;;5268302;28;20788;-48
2022/12/28 12:13:46;;;;;;;2.07;1.97;;;8.10;99.90;;;;;;5267238;28;20222;-48
2022/12/28 12:16:26;;;;;;;3.43;2.60;;;8.00;99.90;;;;;;5262413;28;20427;-49
2022/12/28 12:18:58;;;;;;;4.50;2.70;;;7.90;99.90;;;;;;5260938;28;20446;-49
2022/12/28 12:21:31;;;;;;;3.10;2.40;;;8.00;99.90;;;;;;5271786;27;20440;-47
2022/12/28 12:24:28;;;;;;;2.67;2.37;;;7.90;99.90;;;;;;5257819;28;21602;-48
2022/12/28 12:27:10;;;;;;;5.03;1.93;;;7.90;99.90;;;;;;5259056;28;20474;-50
2022/12/28 12:29:45;;;;;;;5.50;1.80;;;7.90;99.90;;;;;;5259020;28;20437;-51
2022/12/28 12:32:29;;;;;;;2.50;2.30;;;8.00;99.90;;;;;;5265960;28;20436;-53
2022/12/28 12:35:05;;;;;;;2.10;1.80;;;8.10;99.90;;;;;;5266802;28;20436;-48
2022/12/28 12:37:36;;;;;;;2.77;2.57;;;8.20;99.90;;;;;;5253620;28;20456;-50
2022/12/28 12:40:45;;;;;;;3.87;1.80;;;8.40;99.90;;;;;;5261205;28;20983;-49
2022/12/28 12:43:24;;;;;;;2.57;2.37;;;8.60;99.90;;;;;;5256071;28;20338;-52
2022/12/28 12:46:15;;;;;;;4.10;2.53;;;8.50;99.90;;;;;;5267882;28;20800;-48
2022/12/28 12:49:07;;;;;;;7.97;2.37;;;8.50;99.90;;;;;;5268858;28;20997;-52
2022/12/28 12:51:59;;;;;;;3.40;2.10;;;8.50;99.90;;;;;;5265384;28;20476;-49
2022/12/28 12:55:03;;;;;;;2.33;2.00;;;8.60;99.90;;;;;;5269491;28;20485;-49
2022/12/28 12:57:57;;;;;;;6.77;4.03;;;8.60;99.90;;;;;;5264177;28;20466;-49
2022/12/28 13:00:57;;;;;;;5.37;4.50;;;8.70;99.90;;;;;;5263823;28;20504;-51
2022/12/28 13:03:42;;;;;;;2.60;2.50;;;8.80;99.90;;;;;;5270409;28;20851;-51
2022/12/28 13:06:17;;;;;;;4.97;2.83;;;8.80;99.90;;;;;;5261457;28;20447;-52
2022/12/28 13:08:52;;;;;;;2.93;2.53;;;8.90;99.90;;;;;;5276970;27;20469;-50
2022/12/28 13:11:23;;;;;;;3.47;2.50;;;8.90;99.90;;;;;;5266674;28;20778;-50
2022/12/28 13:13:54;;;;;;;3.90;2.07;;;9.00;99.90;;;;;;5260016;28;20466;-50
2022/12/28 13:16:28;;;;;;;4.23;2.10;;;8.90;99.90;;;;;;5259779;28;20210;-50
2022/12/28 13:19:05;;;;;;;3.30;2.37;;;8.80;99.90;;;;;;5249012;28;20509;-52
2022/12/28 13:21:45;;;;;;;2.57;2.10;;;8.90;99.90;;;;;;5258921;28;20970;-52
2022/12/28 13:24:23;;;;;;;4.33;2.33;;;8.90;99.90;;;;;;5267196;28;20489;-52
2022/12/28 13:26:56;;;;;;;3.03;2.37;;;8.80;99.90;;;;;;5262306;28;20962;-50
2022/12/28 13:29:33;;;;;;;2.37;2.27;;;8.70;99.90;;;;;;5270688;28;20493;-48
2022/12/28 13:32:04;;;;;;;3.60;2.03;;;8.70;99.90;;;;;;5263353;28;20447;-51
2022/12/28 13:34:36;;;;;;;2.67;2.33;;;8.60;99.90;;;;;;5265912;28;21122;-49
2022/12/28 13:37:15;;;;;;;6.30;3.63;;;8.50;99.90;;;;;;5268547;28;20181;-50
2022/12/28 13:39:46;;;;;;;2.50;2.30;;;8.40;99.90;;;;;;5274570;28;20488;-52
2022/12/28 13:42:24;;;;;;;2.57;2.37;;;8.30;99.90;;;;;;5274155;28;20778;-49
2022/12/28 13:44:59;;;;;;;6.00;2.77;;;8.30;99.90;;;;;;5260072;28;20945;-50
2022/12/28 13:47:42;;;;;;;6.23;2.47;;;8.30;99.90;;;;;;5268697;28;20480;-50
2022/12/28 13:50:26;;;;;;;3.30;2.33;;;8.30;99.90;;;;;;5271294;28;20504;-53
2022/12/28 13:53:19;;;;;;;2.43;2.20;;;8.40;99.90;;;;;;5267177;28;20478;-50
2022/12/28 13:56:05;;;;;;;2.30;2.10;;;8.50;99.90;;;;;;5269229;28;20461;-49
2022/12/28 13:58:40;;;;;;;4.33;3.03;;;8.60;99.90;;;;;;5256722;28;20459;-51
2022/12/28 14:01:16;;;;;;;2.63;2.10;;;8.60;99.90;;;;;;5265008;28;21072;-53
2022/12/28 14:03:47;;;;;;;2.60;2.20;;;8.60;99.90;;;;;;5268313;28;20435;-54